createdAt,value
2017-12-13T19:09:22.418Z,83.40
2017-12-13T19:11:56.896Z,83.20
2017-12-13T19:14:30.667Z,83.00
2017-12-13T19:17:04.448Z,82.30
2017-12-13T19:19:38.105Z,80.50
2017-12-13T19:22:11.649Z,81.00
2017-12-13T19:24:45.459Z,81.80
2017-12-13T19:27:18.969Z,81.40
2017-12-13T19:29:52.483Z,78.10
2017-12-13T19:32:26.849Z,79.70
2017-12-13T19:35:01.003Z,79.70
2017-12-13T19:37:35.464Z,78.20
2017-12-13T19:40:10.006Z,78.80
2017-12-13T19:42:43.652Z,78.50
2017-12-13T19:45:17.418Z,80.00
2017-12-13T19:47:51.083Z,78.80
2017-12-13T19:50:24.793Z,77.50
2017-12-13T19:52:59.215Z,77.80
2017-12-13T19:55:33.021Z,77.70
2017-12-13T19:58:06.559Z,79.60
2017-12-13T20:00:40.105Z,76.70
2017-12-13T20:03:13.876Z,78.50
2017-12-13T20:05:47.621Z,75.40
2017-12-13T20:08:21.367Z,71.80
2017-12-13T20:10:54.949Z,75.10
2017-12-13T20:13:28.670Z,73.80
2017-12-13T20:16:02.249Z,75.90
2017-12-13T20:18:36.052Z,76.70
2017-12-13T20:21:09.816Z,76.50
2017-12-13T20:23:43.566Z,76.00
2017-12-13T20:26:17.252Z,73.80
2017-12-13T20:28:51.026Z,74.10
2017-12-13T20:31:24.830Z,74.90
2017-12-13T20:33:58.491Z,75.00
2017-12-13T20:36:32.080Z,75.80
2017-12-13T20:39:05.644Z,74.50
2017-12-13T20:41:39.300Z,75.70
2017-12-13T20:44:13.088Z,72.70
2017-12-13T20:46:46.877Z,69.40
2017-12-13T20:49:20.660Z,68.90
2017-12-13T20:51:54.424Z,65.00
2017-12-13T20:54:28.069Z,65.50
2017-12-13T20:57:01.850Z,63.40
2017-12-13T20:59:35.395Z,61.70
2017-12-13T21:02:08.997Z,58.10
2017-12-13T21:04:42.691Z,57.30
2017-12-13T21:07:16.504Z,55.90
2017-12-13T21:09:50.309Z,53.40
2017-12-13T21:12:24.052Z,53.10
2017-12-13T21:14:57.800Z,52.70
2017-12-13T21:17:31.450Z,52.50
2017-12-13T21:20:04.977Z,53.20
2017-12-13T21:22:38.699Z,52.50
2017-12-13T21:25:12.390Z,53.50
2017-12-13T21:27:46.213Z,53.50
2017-12-13T21:30:19.913Z,54.50
2017-12-13T21:32:53.644Z,55.80
2017-12-13T21:35:27.475Z,55.30
2017-12-13T21:38:01.196Z,56.20
2017-12-13T21:40:34.818Z,57.00
2017-12-13T21:43:08.334Z,57.70
2017-12-13T21:45:41.920Z,57.20
2017-12-13T21:48:15.616Z,58.50
2017-12-13T21:50:49.215Z,58.60
2017-12-13T21:53:23.106Z,62.50
2017-12-13T21:55:56.789Z,61.70
2017-12-13T21:58:30.330Z,61.90
2017-12-13T22:01:04.115Z,63.50
2017-12-13T22:03:37.721Z,63.90
2017-12-13T22:06:11.350Z,64.80
2017-12-13T22:08:44.889Z,64.60
2017-12-13T22:11:19.222Z,66.10
2017-12-13T22:13:52.814Z,66.00
2017-12-13T22:16:26.376Z,62.70
2017-12-13T22:19:00.805Z,59.80
2017-12-13T22:21:45.703Z,59.70
2017-12-13T22:24:21.949Z,57.50
2017-12-13T22:30:09.584Z,55.80
2017-12-13T22:32:43.275Z,55.40
2017-12-13T22:35:16.971Z,54.60
2017-12-13T22:37:50.479Z,54.30
2017-12-13T22:40:24.076Z,54.90
2017-12-13T22:42:57.849Z,55.40
2017-12-13T22:45:31.478Z,55.20
2017-12-13T22:48:05.393Z,55.70
2017-12-13T22:50:39.041Z,56.00
2017-12-13T22:53:12.766Z,56.40
2017-12-13T22:55:46.420Z,56.50
2017-12-13T22:58:20.082Z,56.60
2017-12-13T23:00:53.681Z,55.00
2017-12-13T23:03:27.274Z,54.90
2017-12-13T23:06:00.864Z,54.00
2017-12-13T23:08:35.213Z,54.50
2017-12-13T23:11:09.026Z,54.50
2017-12-13T23:13:42.705Z,53.10
2017-12-13T23:16:16.279Z,52.30
2017-12-13T23:18:50.455Z,51.00
2017-12-13T23:21:25.580Z,51.00
2017-12-13T23:24:01.404Z,50.20
2017-12-13T23:26:36.278Z,50.80
2017-12-13T23:29:11.064Z,51.00
2017-12-13T23:31:45.185Z,50.50
2017-12-13T23:34:19.124Z,49.40
2017-12-13T23:36:53.172Z,49.70
2017-12-13T23:39:28.369Z,51.50
2017-12-13T23:42:02.467Z,51.30
2017-12-13T23:44:37.379Z,52.70
2017-12-13T23:47:11.242Z,53.20
2017-12-13T23:49:44.995Z,53.70
2017-12-13T23:52:19.921Z,53.50
2017-12-13T23:54:54.849Z,54.80
2017-12-13T23:57:28.961Z,54.80
